Time;durP1;ratioP1;P1;durP2;ratioP2;P2;SDS_P1;SDS_P2;PMS_P1;PMS_P2;Temp;Humidity;BMP_temperature;BMP_pressure;BME280_temperature;BME280_humidity;BME280_pressure;Samples;Min_cycle;Max_cycle;Signal;HPM_P1;HPM_P2
2020/12/16 00:00:31;;;;;;;15.73;12.38;;;;;;;10.03;84.07;100201.31;9821327;28;25957;-74
2020/12/16 00:05:33;;;;;;;15.15;13.20;;;;;;;10.00;84.03;100212.19;9810859;28;20191;-73
2020/12/16 00:10:34;;;;;;;15.85;12.93;;;;;;;10.01;83.93;100214.75;9815180;28;21827;-73
2020/12/16 00:15:37;;;;;;;19.02;14.50;;;;;;;10.06;83.55;100214.38;9808760;28;20074;-73
2020/12/16 00:20:38;;;;;;;20.67;15.15;;;;;;;10.06;83.81;100222.34;9832712;28;20054;-74
2020/12/16 00:25:39;;;;;;;16.55;13.65;;;;;;;9.99;83.86;100223.81;9800870;28;20105;-74
2020/12/16 00:30:41;;;;;;;14.55;12.77;;;;;;;10.01;84.21;100229.84;9808675;28;22696;-74
2020/12/16 00:35:43;;;;;;;14.43;12.93;;;;;;;9.94;83.92;100218.84;9798091;28;20054;-74
2020/12/16 00:40:44;;;;;;;18.77;13.50;;;;;;;9.94;83.95;100228.63;9810382;28;20062;-74
2020/12/16 00:45:45;;;;;;;14.77;13.23;;;;;;;9.96;83.51;100232.84;9804566;28;22043;-73
2020/12/16 00:50:46;;;;;;;15.07;13.48;;;;;;;9.87;83.70;100223.78;9802661;28;20066;-73
2020/12/16 00:55:48;;;;;;;16.35;14.23;;;;;;;9.94;83.62;100233.94;9803589;28;20646;-74
2020/12/16 01:00:49;;;;;;;15.13;13.55;;;;;;;9.95;83.35;100219.69;9804459;28;22424;-75
2020/12/16 01:05:50;;;;;;;16.38;14.43;;;;;;;9.93;83.54;100242.91;9806813;28;20133;-74
2020/12/16 01:10:51;;;;;;;20.35;14.07;;;;;;;9.89;83.34;100232.50;9798834;28;20185;-74
2020/12/16 01:15:53;;;;;;;20.98;16.77;;;;;;;9.97;83.54;100255.81;9798364;28;20124;-74
2020/12/16 01:20:54;;;;;;;20.75;14.40;;;;;;;9.97;83.63;100254.97;9810104;28;21018;-73
2020/12/16 01:25:55;;;;;;;20.67;16.55;;;;;;;10.00;83.08;100250.28;9816923;28;20077;-74
2020/12/16 01:30:56;;;;;;;23.67;18.00;;;;;;;9.78;83.60;100264.38;9806662;28;20085;-75
2020/12/16 01:35:58;;;;;;;20.55;18.20;;;;;;;9.81;83.24;100258.81;9814492;28;20050;-74
2020/12/16 01:41:04;;;;;;;25.55;20.13;;;;;;;9.85;82.76;100262.09;9812540;28;20118;-74
2020/12/16 01:46:05;;;;;;;20.60;18.15;;;;;;;9.82;82.88;100259.69;9825195;28;20452;-74
2020/12/16 01:51:12;;;;;;;21.42;18.05;;;;;;;9.86;82.81;100269.97;9839654;28;20050;-74
2020/12/16 01:56:15;;;;;;;23.17;19.15;;;;;;;9.83;83.06;100267.53;9844885;28;20061;-74
2020/12/16 02:01:21;;;;;;;22.40;17.92;;;;;;;9.82;83.22;100262.34;9817462;28;20053;-74
2020/12/16 02:06:24;;;;;;;22.95;17.90;;;;;;;9.80;83.26;100249.13;9807278;28;20055;-73
2020/12/16 02:11:25;;;;;;;24.30;17.90;;;;;;;9.82;83.28;100257.88;9829938;28;20061;-73
2020/12/16 02:16:28;;;;;;;25.33;19.27;;;;;;;9.82;83.44;100263.19;9815483;28;20618;-73
2020/12/16 02:21:29;;;;;;;23.33;18.55;;;;;;;9.76;83.36;100261.00;9805394;28;20058;-73
2020/12/16 02:26:33;;;;;;;18.65;15.45;;;;;;;9.72;83.49;100264.84;9806585;28;20062;-73
2020/12/16 02:31:37;;;;;;;21.27;17.13;;;;;;;9.72;83.41;100272.81;9822083;28;22953;-74
2020/12/16 02:36:38;;;;;;;20.52;16.20;;;;;;;9.65;83.45;100267.16;9823546;28;20452;-74
2020/12/16 02:41:39;;;;;;;19.42;16.67;;;;;;;9.68;83.42;100272.22;9815888;28;20086;-74
2020/12/16 02:46:40;;;;;;;19.23;16.40;;;;;;;9.66;83.60;100286.59;9806228;28;20141;-74
2020/12/16 02:51:42;;;;;;;19.38;15.43;;;;;;;9.64;83.84;100294.69;9815867;28;21494;-73
2020/12/16 02:56:54;;;;;;;23.10;17.10;;;;;;;9.66;83.63;100306.03;9819109;28;20443;-73
2020/12/16 03:01:56;;;;;;;18.38;15.95;;;;;;;9.64;83.80;100307.97;9821324;28;20515;-73
2020/12/16 03:06:57;;;;;;;20.23;15.52;;;;;;;9.62;83.69;100309.03;9822226;28;20057;-75
2020/12/16 03:11:59;;;;;;;20.45;15.70;;;;;;;9.62;83.87;100327.63;9805605;28;20062;-75
2020/12/16 03:17:00;;;;;;;20.15;16.15;;;;;;;9.54;84.07;100306.97;9825169;28;20055;-74
2020/12/16 03:22:01;;;;;;;22.10;15.07;;;;;;;9.59;83.78;100314.59;9807101;28;20073;-72
2020/12/16 03:27:02;;;;;;;20.95;15.73;;;;;;;9.58;83.58;100311.09;9810521;28;20518;-73
2020/12/16 03:32:04;;;;;;;19.77;15.25;;;;;;;9.58;83.46;100319.06;9810758;28;20054;-74
2020/12/16 03:37:06;;;;;;;19.48;15.05;;;;;;;9.61;83.36;100318.84;9808421;28;20417;-75
2020/12/16 03:42:07;;;;;;;18.02;14.48;;;;;;;9.59;83.17;100303.94;9796912;28;20735;-74
2020/12/16 03:47:09;;;;;;;18.42;14.05;;;;;;;9.63;82.95;100313.41;9819247;28;20060;-74
2020/12/16 03:52:10;;;;;;;19.92;14.65;;;;;;;9.64;82.85;100317.75;9841252;28;20046;-74
2020/12/16 03:57:19;;;;;;;18.35;14.43;;;;;;;9.51;82.97;100299.22;9817029;28;20505;-74
2020/12/16 04:02:20;;;;;;;16.70;13.65;;;;;;;9.54;83.03;100296.34;9806111;28;20917;-72
2020/12/16 04:07:21;;;;;;;19.17;14.00;;;;;;;9.61;83.02;100302.03;9811322;28;20062;-73
2020/12/16 04:12:22;;;;;;;17.50;13.05;;;;;;;9.65;82.95;100312.31;9832074;28;20207;-74
2020/12/16 04:17:24;;;;;;;14.48;12.77;;;;;;;9.63;82.81;100305.44;9831103;28;20132;-72
2020/12/16 04:22:25;;;;;;;17.88;12.85;;;;;;;9.61;82.96;100302.88;9809824;28;20046;-73
2020/12/16 04:27:29;;;;;;;15.93;13.43;;;;;;;9.63;83.22;100306.25;9808345;28;20504;-73
2020/12/16 04:32:31;;;;;;;17.85;14.68;;;;;;;9.60;83.14;100305.66;9819035;28;20687;-72
2020/12/16 04:37:32;;;;;;;17.52;13.52;;;;;;;9.57;83.60;100295.25;9828007;28;20124;-73
2020/12/16 04:42:33;;;;;;;14.93;13.30;;;;;;;9.60;83.53;100300.34;9812478;28;20085;-73
2020/12/16 04:47:34;;;;;;;18.83;14.63;;;;;;;9.60;83.32;100310.97;9799702;28;20158;-74
2020/12/16 04:52:38;;;;;;;18.90;14.13;;;;;;;9.65;83.33;100320.31;9812476;28;20129;-73
2020/12/16 04:57:52;;;;;;;17.00;13.65;;;;;;;9.58;83.41;100311.09;9812437;28;20189;-74
2020/12/16 05:02:58;;;;;;;17.98;13.85;;;;;;;9.61;83.54;100328.59;9827631;28;20057;-72
2020/12/16 05:08:14;;;;;;;15.85;13.82;;;;;;;9.63;83.26;100329.34;9854112;28;20092;-74
2020/12/16 05:13:21;;;;;;;16.90;12.93;;;;;;;9.71;83.33;100340.22;9808309;28;20055;-73
2020/12/16 05:18:27;;;;;;;18.13;15.00;;;;;;;9.75;83.41;100356.81;9808610;28;20085;-73
2020/12/16 05:23:35;;;;;;;16.95;13.88;;;;;;;9.75;82.91;100351.50;9817886;28;23174;-74
2020/12/16 05:28:55;;;;;;;16.95;14.00;;;;;;;9.78;82.86;100348.59;9807165;28;20504;-74
2020/12/16 05:33:57;;;;;;;19.58;14.23;;;;;;;9.78;82.92;100346.78;9827581;28;20567;-73
2020/12/16 05:38:59;;;;;;;16.70;14.00;;;;;;;9.76;82.99;100348.72;9817345;28;20063;-73
2020/12/16 05:44:24;;;;;;;18.63;14.88;;;;;;;9.79;83.06;100356.47;9814054;28;20062;-74
2020/12/16 05:49:30;;;;;;;17.20;13.95;;;;;;;9.77;83.20;100349.56;9838355;28;20061;-75
2020/12/16 05:54:37;;;;;;;17.45;13.50;;;;;;;9.76;83.02;100351.38;9811096;28;20526;-73
2020/12/16 05:59:39;;;;;;;18.25;13.82;;;;;;;9.75;83.03;100352.34;9797993;28;20051;-74
2020/12/16 06:04:41;;;;;;;18.67;14.57;;;;;;;9.67;83.12;100339.63;9816976;28;20061;-74
2020/12/16 06:09:42;;;;;;;19.90;14.90;;;;;;;9.35;84.75;100324.28;9830649;28;20089;-73
2020/12/16 06:14:48;;;;;;;17.85;15.15;;;;;;;9.49;84.30;100335.69;9857219;28;20061;-76
2020/12/16 06:19:50;;;;;;;17.77;14.70;;;;;;;9.54;84.01;100349.47;9810085;28;20116;-73
2020/12/16 06:24:58;;;;;;;22.88;16.23;;;;;;;9.53;83.79;100331.84;9790369;28;20571;-75
2020/12/16 06:30:01;;;;;;;18.08;16.08;;;;;;;9.60;84.00;100341.03;9811748;28;20521;-75
2020/12/16 06:35:04;;;;;;;19.92;15.02;;;;;;;9.60;83.47;100333.06;9816836;28;20069;-75
2020/12/16 06:40:05;;;;;;;23.08;18.73;;;;;;;9.67;83.44;100341.44;9791206;28;20476;-73
2020/12/16 06:45:15;;;;;;;20.95;16.30;;;;;;;9.65;83.40;100335.38;9796265;28;20055;-75
2020/12/16 06:50:21;;;;;;;19.63;15.85;;;;;;;9.70;83.42;100339.41;9765651;28;20058;-74
2020/12/16 06:55:23;;;;;;;21.83;16.35;;;;;;;9.67;83.29;100328.16;9787172;28;21837;-71
2020/12/16 07:00:24;;;;;;;21.85;16.20;;;;;;;9.61;83.36;100323.28;9802924;28;20132;-73
2020/12/16 07:05:39;;;;;;;23.02;16.65;;;;;;;9.60;83.55;100338.38;9814039;28;20050;-73
2020/12/16 07:10:44;;;;;;;22.25;17.92;;;;;;;9.61;83.63;100345.41;9812268;28;20137;-76
2020/12/16 07:16:07;;;;;;;18.92;15.18;;;;;;;9.61;83.11;100345.41;9801782;28;20061;-74
2020/12/16 07:21:08;;;;;;;19.48;15.63;;;;;;;9.69;83.30;100371.41;9800055;28;20831;-74
2020/12/16 07:26:11;;;;;;;18.38;14.95;;;;;;;9.69;83.06;100379.38;9799301;28;20073;-74
2020/12/16 07:31:15;;;;;;;18.13;15.93;;;;;;;9.70;83.31;100392.56;9802919;28;20065;-76
2020/12/16 07:36:17;;;;;;;17.25;14.23;;;;;;;9.73;82.98;100381.69;9807243;28;20573;-76
2020/12/16 07:41:26;;;;;;;18.20;14.98;;;;;;;9.72;82.99;100373.84;9810493;28;20113;-76
2020/12/16 07:46:28;;;;;;;17.33;15.45;;;;;;;9.78;82.73;100373.38;9861414;28;20058;-76
2020/12/16 07:51:29;;;;;;;17.25;14.82;;;;;;;9.80;82.64;100363.47;9832254;28;21547;-74
2020/12/16 07:56:31;;;;;;;17.10;15.20;;;;;;;9.78;82.81;100384.00;9800849;28;20133;-75
2020/12/16 08:01:32;;;;;;;15.85;13.05;;;;;;;9.76;82.58;100375.31;9803344;28;21564;-74
2020/12/16 08:06:33;;;;;;;16.38;14.63;;;;;;;9.79;82.27;100380.38;9817888;28;20058;-75
2020/12/16 08:11:34;;;;;;;16.70;14.13;;;;;;;9.81;82.18;100381.13;9815011;28;20066;-75
2020/12/16 08:16:36;;;;;;;15.95;14.10;;;;;;;9.79;82.20;100375.06;9800718;28;20424;-75
2020/12/16 08:21:38;;;;;;;15.15;13.63;;;;;;;9.83;82.37;100381.00;9805480;28;20055;-75
2020/12/16 08:26:39;;;;;;;15.30;13.27;;;;;;;9.91;82.06;100390.09;9815881;28;20122;-71
2020/12/16 08:31:40;;;;;;;14.85;13.20;;;;;;;9.92;81.51;100401.56;9838833;28;23688;-78
2020/12/16 08:36:44;;;;;;;14.15;12.65;;;;;;;9.90;81.69;100399.03;9796907;28;20105;-78
2020/12/16 08:41:46;;;;;;;14.02;12.48;;;;;;;9.97;81.62;100403.88;9766104;28;21449;-78
2020/12/16 08:46:47;;;;;;;16.88;13.65;;;;;;;9.99;81.50;100412.59;9801108;28;20485;-79
2020/12/16 08:51:49;;;;;;;14.25;12.73;;;;;;;10.00;81.41;100414.31;9800300;28;20049;-77
2020/12/16 08:56:56;;;;;;;14.05;12.65;;;;;;;9.99;81.70;100402.81;9799832;28;20057;-76
2020/12/16 09:02:03;;;;;;;14.35;12.95;;;;;;;10.05;80.81;100412.13;9816797;28;20058;-78
2020/12/16 09:07:13;;;;;;;13.00;11.70;;;;;;;10.10;80.52;100436.56;9727532;28;20054;-78
2020/12/16 09:12:19;;;;;;;13.25;11.35;;;;;;;10.02;80.25;100423.00;9695651;28;20055;-78
2020/12/16 09:17:25;;;;;;;12.65;11.52;;;;;;;10.04;80.12;100421.06;9742138;28;24048;-79
2020/12/16 09:22:28;;;;;;;15.77;12.75;;;;;;;10.00;80.27;100407.16;9784614;28;20093;-79
2020/12/16 09:27:29;;;;;;;13.52;12.23;;;;;;;9.99;80.17;100429.41;9825613;28;20913;-78
2020/12/16 09:32:30;;;;;;;13.70;12.25;;;;;;;10.01;80.36;100434.59;9797151;28;20156;-78
2020/12/16 09:37:33;;;;;;;15.63;13.57;;;;;;;10.03;80.80;100435.34;9800217;28;21991;-78
2020/12/16 09:42:35;;;;;;;14.20;12.85;;;;;;;10.08;80.19;100434.03;9826077;28;20058;-77
2020/12/16 09:47:43;;;;;;;14.38;12.88;;;;;;;10.04;79.86;100416.63;9829854;28;20053;-77
2020/12/16 09:52:45;;;;;;;13.90;12.50;;;;;;;10.03;79.47;100427.38;9799812;28;20057;-75
2020/12/16 09:58:06;;;;;;;13.00;11.80;;;;;;;10.15;79.88;100445.06;9787449;28;20069;-76
2020/12/16 10:03:09;;;;;;;14.20;12.70;;;;;;;10.17;79.42;100435.13;9789858;28;20054;-77
2020/12/16 10:08:17;;;;;;;14.80;13.30;;;;;;;10.18;79.03;100418.22;9801161;28;20089;-77
2020/12/16 10:13:18;;;;;;;13.07;11.88;;;;;;;10.25;79.03;100403.50;9797122;28;20058;-77
2020/12/16 10:18:19;;;;;;;13.85;12.45;;;;;;;10.65;78.14;100396.06;9801810;28;20053;-76
2020/12/16 10:23:21;;;;;;;13.30;12.00;;;;;;;10.68;76.61;100383.34;9811868;28;20085;-81
2020/12/16 10:28:22;;;;;;;15.23;13.43;;;;;;;10.66;76.68;100398.63;9799602;28;20055;-79
2020/12/16 10:33:23;;;;;;;13.98;12.60;;;;;;;10.69;76.24;100394.84;9802020;28;22234;-77
2020/12/16 10:38:25;;;;;;;13.98;12.48;;;;;;;10.83;76.11;100383.97;9804369;28;20066;-78
2020/12/16 10:43:26;;;;;;;15.55;13.93;;;;;;;11.04;75.40;100369.91;9796351;28;20318;-77
2020/12/16 10:48:27;;;;;;;15.63;14.13;;;;;;;11.31;74.57;100375.63;9799651;28;20050;-79
2020/12/16 10:53:29;;;;;;;15.43;13.48;;;;;;;11.28;74.60;100356.41;9817763;28;20051;-78
2020/12/16 10:58:31;;;;;;;15.82;14.13;;;;;;;11.55;73.76;100349.78;9812698;28;20599;-78
2020/12/16 11:03:32;;;;;;;14.77;13.32;;;;;;;11.80;72.02;100341.41;9771215;28;20077;-77
2020/12/16 11:08:33;;;;;;;15.43;13.88;;;;;;;12.21;71.32;100352.22;9778534;28;23148;-77
2020/12/16 11:13:34;;;;;;;19.50;14.65;;;;;;;12.19;70.96;100324.84;9837722;28;20232;-75
2020/12/16 11:18:36;;;;;;;15.43;13.90;;;;;;;12.46;69.80;100312.72;9770108;28;20057;-75
2020/12/16 11:23:37;;;;;;;15.23;13.73;;;;;;;13.55;66.59;100336.88;9802372;28;20259;-73
2020/12/16 11:28:38;;;;;;;15.73;14.15;;;;;;;12.71;68.77;100336.28;9793687;28;20054;-71
2020/12/16 11:33:40;;;;;;;15.23;13.63;;;;;;;12.50;70.40;100319.50;9799373;28;20054;-71
2020/12/16 11:38:41;;;;;;;16.65;15.02;;;;;;;12.97;67.38;100330.47;9806926;28;20069;-71
2020/12/16 11:43:42;;;;;;;15.65;14.20;;;;;;;14.17;63.49;100312.44;9812364;28;20772;-75
2020/12/16 11:48:43;;;;;;;13.15;11.77;;;;;;;16.53;55.62;100316.75;9807698;28;20504;-73
2020/12/16 11:53:45;;;;;;;13.63;12.23;;;;;;;16.72;54.90;100309.44;9803769;28;20121;-75
2020/12/16 11:58:46;;;;;;;14.07;12.70;;;;;;;19.01;50.11;100307.63;9782178;28;20131;-75
2020/12/16 12:03:47;;;;;;;13.82;12.57;;;;;;;18.73;48.80;100300.00;9825161;28;20057;-75
2020/12/16 12:08:49;;;;;;;13.95;12.48;;;;;;;23.10;40.35;100296.91;9794765;28;20148;-76
2020/12/16 12:13:51;;;;;;;13.20;11.85;;;;;;;25.66;34.35;100288.75;9794749;28;20049;-76
2020/12/16 12:18:53;;;;;;;12.35;11.25;;;;;;;26.03;32.77;100275.25;9775489;28;20055;-75
2020/12/16 12:23:54;;;;;;;11.93;10.82;;;;;;;25.43;33.72;100283.06;9776193;28;20177;-76
2020/12/16 12:28:55;;;;;;;11.60;10.60;;;;;;;26.05;31.62;100269.56;9772548;28;20058;-75
2020/12/16 12:33:56;;;;;;;12.20;11.10;;;;;;;25.86;31.77;100265.94;9777259;28;24820;-76
2020/12/16 12:38:58;;;;;;;10.65;9.75;;;;;;;26.67;30.85;100252.31;9768929;28;20149;-77
2020/12/16 12:44:00;;;;;;;10.37;9.47;;;;;;;28.16;27.90;100256.88;9767255;28;20137;-77
2020/12/16 12:49:01;;;;;;;11.10;10.10;;;;;;;28.77;27.73;100256.53;9798996;28;20066;-76
2020/12/16 12:54:03;;;;;;;10.90;9.93;;;;;;;24.51;32.96;100270.53;9764326;28;21565;-77
2020/12/16 12:59:06;;;;;;;11.60;10.60;;;;;;;19.55;42.96;100281.63;9771622;28;24812;-77
2020/12/16 13:04:07;;;;;;;12.13;11.05;;;;;;;17.29;49.55;100280.03;9778586;28;20054;-74
2020/12/16 13:09:08;;;;;;;11.48;10.48;;;;;;;15.89;53.42;100275.94;9771267;28;20236;-76
2020/12/16 13:14:09;;;;;;;12.98;11.88;;;;;;;14.98;57.77;100272.47;9772583;28;23571;-75
2020/12/16 13:19:17;;;;;;;13.30;12.05;;;;;;;14.44;58.44;100287.53;9771249;28;20169;-74
2020/12/16 13:24:22;;;;;;;14.52;13.13;;;;;;;13.92;60.58;100279.97;9782017;28;20152;-75
2020/12/16 13:29:24;;;;;;;14.15;12.75;;;;;;;13.65;61.60;100286.91;9774442;28;20062;-75
2020/12/16 13:34:26;;;;;;;13.30;11.95;;;;;;;13.33;62.83;100296.06;9795996;28;20085;-75
2020/12/16 13:39:27;;;;;;;14.18;12.88;;;;;;;12.81;64.33;100295.44;9807932;28;20097;-76
2020/12/16 13:44:28;;;;;;;13.63;12.18;;;;;;;12.62;65.29;100286.34;9776414;28;20054;-75
2020/12/16 13:49:29;;;;;;;14.23;12.93;;;;;;;12.82;64.85;100275.72;9773190;28;20098;-75
2020/12/16 13:54:31;;;;;;;14.48;12.98;;;;;;;13.14;64.03;100269.31;9654235;28;20066;-75
2020/12/16 13:59:32;;;;;;;15.48;13.98;;;;;;;12.91;64.10;100274.91;10001511;28;20126;-73
2020/12/16 14:04:49;;;;;;;19.23;14.50;;;;;;;12.64;65.27;100279.06;9772722;28;20132;-74
2020/12/16 14:09:50;;;;;;;15.13;13.57;;;;;;;12.24;66.79;100273.72;9744508;28;20567;-74
2020/12/16 14:14:53;;;;;;;15.82;14.00;;;;;;;12.24;67.32;100276.41;9760740;28;20749;-74
2020/12/16 14:19:55;;;;;;;15.47;13.97;;;;;;;12.31;67.51;100285.53;9753174;28;20607;-74
2020/12/16 14:24:56;;;;;;;15.50;13.90;;;;;;;12.26;66.99;100277.94;9766047;28;20090;-73
2020/12/16 14:30:13;;;;;;;15.57;13.98;;;;;;;12.11;67.41;100277.44;9726901;28;20066;-74
2020/12/16 14:35:15;;;;;;;17.45;14.75;;;;;;;12.04;68.12;100286.97;9772617;28;20163;-74
2020/12/16 14:40:16;;;;;;;15.10;13.57;;;;;;;11.90;68.24;100282.78;9776084;28;20124;-74
2020/12/16 14:45:18;;;;;;;16.23;14.63;;;;;;;11.65;68.86;100284.88;9778804;28;20677;-74
2020/12/16 14:50:19;;;;;;;15.70;14.05;;;;;;;11.44;70.05;100297.31;9782185;28;20165;-74
2020/12/16 14:55:21;;;;;;;16.27;14.35;;;;;;;11.39;70.38;100319.03;9804278;28;20082;-74
2020/12/16 15:00:23;;;;;;;16.85;14.80;;;;;;;11.26;71.08;100308.56;9803532;28;20101;-73
2020/12/16 15:05:25;;;;;;;18.30;14.75;;;;;;;11.21;71.61;100325.91;9779346;28;20190;-75
2020/12/16 15:10:26;;;;;;;16.85;15.00;;;;;;;11.04;72.04;100313.97;9783154;28;20054;-75
2020/12/16 15:15:28;;;;;;;17.88;15.98;;;;;;;10.90;72.59;100305.28;9798311;28;20106;-75
2020/12/16 15:20:29;;;;;;;24.95;22.40;;;;;;;10.87;73.03;100317.97;9797240;28;24228;-75
2020/12/16 15:25:30;;;;;;;18.52;16.67;;;;;;;10.78;73.21;100304.44;9795349;28;20062;-75
2020/12/16 15:30:32;;;;;;;18.75;16.63;;;;;;;10.69;73.78;100299.00;9806563;28;20063;-73
2020/12/16 15:35:33;;;;;;;17.00;15.30;;;;;;;10.65;74.15;100294.91;9825525;28;20638;-74
2020/12/16 15:40:34;;;;;;;17.35;15.55;;;;;;;10.55;74.60;100300.97;9776771;28;20054;-74
2020/12/16 15:45:36;;;;;;;16.63;14.55;;;;;;;10.54;74.75;100306.44;9782147;28;20054;-73
2020/12/16 15:50:37;;;;;;;17.30;14.73;;;;;;;10.51;74.91;100307.50;9764429;28;21084;-73
2020/12/16 15:55:38;;;;;;;18.23;15.32;;;;;;;10.49;74.93;100309.41;9795613;28;20696;-75
2020/12/16 16:00:40;;;;;;;20.30;17.58;;;;;;;10.51;74.98;100310.16;9777681;28;21277;-75
2020/12/16 16:05:42;;;;;;;16.60;14.90;;;;;;;10.44;75.01;100314.28;9788637;28;20057;-75
2020/12/16 16:10:43;;;;;;;16.77;14.98;;;;;;;10.37;75.32;100310.41;9771213;28;20058;-73
2020/12/16 16:15:44;;;;;;;17.15;15.35;;;;;;;10.27;75.62;100311.09;9769884;28;20061;-76
2020/12/16 16:20:46;;;;;;;17.85;15.68;;;;;;;10.36;75.63;100338.00;9779102;28;20058;-75
2020/12/16 16:25:50;;;;;;;18.70;16.83;;;;;;;10.30;75.73;100333.97;9787419;28;20073;-73
2020/12/16 16:30:52;;;;;;;16.95;15.23;;;;;;;10.25;75.81;100334.31;9781148;28;20065;-75
2020/12/16 16:35:53;;;;;;;15.98;14.27;;;;;;;10.13;76.33;100334.41;9770392;28;20058;-74
2020/12/16 16:40:56;;;;;;;16.63;14.93;;;;;;;10.09;76.40;100333.81;9750168;28;20058;-74
2020/12/16 16:45:57;;;;;;;17.13;15.13;;;;;;;10.08;76.59;100338.28;9770462;28;20054;-74
2020/12/16 16:50:59;;;;;;;17.92;16.00;;;;;;;9.98;76.65;100325.81;9769573;28;20495;-74
2020/12/16 16:56:00;;;;;;;17.35;15.55;;;;;;;10.01;76.73;100329.09;9763939;28;20049;-74
2020/12/16 17:01:02;;;;;;;17.27;15.50;;;;;;;9.99;76.86;100324.84;9881716;28;20724;-73
2020/12/16 17:06:04;;;;;;;15.65;14.02;;;;;;;10.00;76.51;100332.72;9779439;28;20059;-70
2020/12/16 17:11:05;;;;;;;17.65;15.68;;;;;;;10.05;76.69;100343.00;9763439;28;20837;-74
2020/12/16 17:16:07;;;;;;;16.77;14.98;;;;;;;10.10;76.29;100340.81;9777350;28;20046;-71
2020/12/16 17:21:08;;;;;;;16.58;14.98;;;;;;;10.10;76.53;100335.50;9789604;28;20141;-73
2020/12/16 17:26:10;;;;;;;20.40;18.00;;;;;;;10.07;76.40;100336.59;9814459;28;22288;-72
2020/12/16 17:31:12;;;;;;;18.80;16.63;;;;;;;10.00;76.58;100335.38;9826145;28;20072;-72
2020/12/16 17:36:13;;;;;;;18.77;16.73;;;;;;;9.99;76.57;100346.13;9784013;28;20054;-72
2020/12/16 17:41:15;;;;;;;18.42;16.40;;;;;;;9.82;76.86;100334.13;9803803;28;20620;-72
2020/12/16 17:46:18;;;;;;;20.13;17.67;;;;;;;9.83;76.94;100355.28;9789003;28;20050;-73
2020/12/16 17:51:22;;;;;;;17.23;15.38;;;;;;;9.75;78.16;100333.72;9822126;28;20387;-73
2020/12/16 17:56:23;;;;;;;20.50;16.98;;;;;;;9.66;77.76;100326.44;9829563;28;20141;-72
2020/12/16 18:01:24;;;;;;;19.83;16.50;;;;;;;9.66;77.67;100353.03;9801675;28;20058;-74
2020/12/16 18:06:25;;;;;;;27.13;23.83;;;;;;;9.56;77.91;100350.19;9787908;28;20070;-74
2020/12/16 18:11:29;;;;;;;19.63;16.83;;;;;;;9.46;78.18;100351.88;9783980;28;20062;-75
2020/12/16 18:16:30;;;;;;;19.27;17.15;;;;;;;9.42;78.21;100359.22;9792583;28;20460;-73
2020/12/16 18:21:32;;;;;;;21.25;17.75;;;;;;;9.34;78.72;100358.94;9784705;28;20054;-76
2020/12/16 18:26:41;;;;;;;21.42;18.55;;;;;;;9.27;78.58;100352.38;9886950;28;20555;-75
2020/12/16 18:31:42;;;;;;;19.38;17.40;;;;;;;9.23;78.63;100358.88;9916177;28;20057;-77
2020/12/16 18:36:50;;;;;;;18.90;15.97;;;;;;;9.19;78.69;100361.75;9794305;28;22389;-75
2020/12/16 18:41:51;;;;;;;20.65;18.55;;;;;;;9.15;78.92;100364.75;9777721;28;20054;-73
2020/12/16 18:46:59;;;;;;;21.35;17.85;;;;;;;9.09;78.96;100355.41;9824134;28;20855;-77
2020/12/16 18:52:00;;;;;;;20.20;17.73;;;;;;;9.05;79.11;100375.16;9795808;28;20082;-75
2020/12/16 18:57:02;;;;;;;21.95;19.50;;;;;;;8.97;79.59;100353.66;9813437;28;20095;-75
2020/12/16 19:02:03;;;;;;;23.65;20.30;;;;;;;8.99;79.39;100367.66;9793489;28;20057;-76
2020/12/16 19:07:06;;;;;;;21.73;19.23;;;;;;;8.95;79.43;100358.22;9795489;28;20081;-74
2020/12/16 19:12:08;;;;;;;24.10;18.98;;;;;;;8.90;79.20;100350.56;9794060;28;20065;-74
2020/12/16 19:17:09;;;;;;;22.67;20.27;;;;;;;8.82;79.39;100353.78;9829093;28;20054;-75
2020/12/16 19:22:13;;;;;;;22.52;19.40;;;;;;;8.77;79.66;100350.63;9828913;28;20054;-74
2020/12/16 19:27:14;;;;;;;21.50;19.20;;;;;;;8.75;79.70;100352.53;9817210;28;20131;-70
2020/12/16 19:32:16;;;;;;;21.02;18.77;;;;;;;8.77;79.90;100363.06;9793648;28;20058;-73
2020/12/16 19:37:17;;;;;;;22.60;18.45;;;;;;;8.65;79.95;100352.34;9790927;28;20620;-73
2020/12/16 19:42:18;;;;;;;22.23;18.88;;;;;;;8.73;80.09;100365.06;9786413;28;20459;-76
2020/12/16 19:47:19;;;;;;;20.67;18.45;;;;;;;8.67;80.36;100354.88;9790251;28;20085;-74
2020/12/16 19:52:21;;;;;;;22.75;20.27;;;;;;;8.66;80.45;100353.19;9796541;28;22869;-73
2020/12/16 19:57:22;;;;;;;21.88;18.63;;;;;;;8.63;80.50;100361.34;9787460;28;20055;-73
2020/12/16 20:02:24;;;;;;;23.33;19.15;;;;;;;8.65;80.35;100359.47;9795049;28;20050;-72
2020/12/16 20:07:25;;;;;;;21.48;18.00;;;;;;;8.65;80.56;100367.41;9799168;28;20189;-73
2020/12/16 20:12:33;;;;;;;23.23;19.67;;;;;;;8.67;80.58;100368.16;9803298;28;20094;-73
2020/12/16 20:17:36;;;;;;;22.90;19.75;;;;;;;8.76;80.18;100361.34;9800205;28;23465;-75
2020/12/16 20:22:38;;;;;;;25.83;22.10;;;;;;;8.85;80.03;100377.44;9794027;28;20050;-73
2020/12/16 20:27:39;;;;;;;21.88;19.45;;;;;;;8.94;79.77;100383.06;9788495;28;20128;-73
2020/12/16 20:32:42;;;;;;;22.80;19.80;;;;;;;9.00;79.63;100377.31;9781158;28;20053;-75
2020/12/16 20:37:44;;;;;;;27.75;21.50;;;;;;;8.95;79.56;100376.81;9733342;28;20497;-74
2020/12/16 20:42:46;;;;;;;23.48;20.35;;;;;;;9.01;79.77;100379.03;9705478;28;20119;-74
2020/12/16 20:47:47;;;;;;;25.30;21.88;;;;;;;8.78;79.56;100330.22;9993248;28;20077;-74
2020/12/16 20:52:49;;;;;;;23.08;20.33;;;;;;;8.98;79.58;100365.97;9748234;28;20145;-74
2020/12/16 20:57:50;;;;;;;23.10;20.13;;;;;;;9.01;79.49;100369.25;9722086;28;20057;-77
2020/12/16 21:02:53;;;;;;;23.98;20.52;;;;;;;8.89;79.23;100364.81;10051744;28;21356;-74
2020/12/16 21:07:55;;;;;;;23.95;19.45;;;;;;;8.81;80.08;100360.06;9777206;28;20095;-75
2020/12/16 21:12:56;;;;;;;24.52;20.42;;;;;;;8.67;80.28;100365.50;9782847;28;20050;-74
2020/12/16 21:17:58;;;;;;;26.10;20.73;;;;;;;8.64;80.65;100357.75;9885472;28;24763;-74
2020/12/16 21:22:59;;;;;;;22.85;20.13;;;;;;;8.63;80.45;100358.69;9824619;28;20058;-74
2020/12/16 21:28:01;;;;;;;24.73;21.08;;;;;;;8.60;80.63;100372.19;9793936;28;21713;-74
2020/12/16 21:33:02;;;;;;;24.83;21.70;;;;;;;8.50;80.43;100361.38;9801748;28;20065;-74
2020/12/16 21:38:03;;;;;;;25.35;21.48;;;;;;;8.48;81.04;100374.75;9802769;28;20062;-74
2020/12/16 21:43:04;;;;;;;24.52;19.83;;;;;;;8.45;80.73;100359.06;9804499;28;21899;-74
2020/12/16 21:48:06;;;;;;;24.67;21.65;;;;;;;8.49;80.61;100363.16;9815871;28;20109;-75
2020/12/16 21:53:08;;;;;;;23.10;20.70;;;;;;;8.47;80.65;100365.09;9802734;28;20150;-74
2020/12/16 21:58:09;;;;;;;23.88;20.95;;;;;;;8.48;80.50;100355.31;9821231;28;20055;-74
2020/12/16 22:03:11;;;;;;;24.70;21.00;;;;;;;8.40;80.34;100350.53;9824550;28;20050;-73
2020/12/16 22:08:24;;;;;;;25.10;21.13;;;;;;;8.39;80.47;100361.25;9814813;28;20054;-74
2020/12/16 22:13:25;;;;;;;25.38;22.58;;;;;;;8.33;80.48;100357.19;9846337;28;20092;-75
2020/12/16 22:18:26;;;;;;;23.58;20.42;;;;;;;8.34;80.53;100369.53;9818769;28;20091;-74
2020/12/16 22:23:27;;;;;;;23.80;21.38;;;;;;;8.39;80.71;100378.03;9818170;28;22411;-76
2020/12/16 22:28:29;;;;;;;27.92;21.63;;;;;;;8.37;80.23;100364.00;9809697;28;21120;-74
2020/12/16 22:33:30;;;;;;;25.00;21.02;;;;;;;8.47;80.15;100375.69;9807853;28;20074;-74
2020/12/16 22:38:32;;;;;;;23.45;20.95;;;;;;;8.55;80.00;100391.09;9824156;28;20477;-75
2020/12/16 22:43:34;;;;;;;20.27;18.02;;;;;;;8.58;80.08;100387.38;9815406;28;20085;-75
2020/12/16 22:48:35;;;;;;;22.80;19.48;;;;;;;8.55;79.67;100382.28;9812418;28;20062;-75
2020/12/16 22:53:39;;;;;;;22.50;18.80;;;;;;;8.63;79.77;100387.88;9806925;28;20057;-73
2020/12/16 22:58:42;;;;;;;19.88;17.70;;;;;;;8.63;79.52;100402.03;9809402;28;20481;-74
2020/12/16 23:03:43;;;;;;;19.45;17.30;;;;;;;8.62;79.69;100400.31;9811597;28;20657;-74